Time;durP1;ratioP1;P1;durP2;ratioP2;P2;SDS_P1;SDS_P2;PMS_P1;PMS_P2;Temp;Humidity;BMP_temperature;BMP_pressure;BME280_temperature;BME280_humidity;BME280_pressure;Samples;Min_cycle;Max_cycle;Signal;HPM_P1;HPM_P2
2022/09/29 00:00:16;;;;;;;0.6;0.6;;;;;;;;;;;;;
2022/09/29 00:02:42;;;;;;;0.3;0.3;;;;;;;;;;;;;
2022/09/29 00:05:07;;;;;;;0.4;0.4;;;;;;;;;;;;;
2022/09/29 00:07:33;;;;;;;0.6;0.6;;;;;;;;;;;;;
2022/09/29 00:09:58;;;;;;;0.7;0.6;;;;;;;;;;;;;
2022/09/29 00:12:23;;;;;;;0.8;0.8;;;;;;;;;;;;;
2022/09/29 00:14:49;;;;;;;0.7;0.7;;;;;;;;;;;;;
2022/09/29 00:17:14;;;;;;;0.9;0.7;;;;;;;;;;;;;
2022/09/29 00:19:39;;;;;;;0.7;0.7;;;;;;;;;;;;;
2022/09/29 00:22:04;;;;;;;1.2;0.8;;;;;;;;;;;;;
2022/09/29 00:24:48;;;;;;;0.9;0.8;;;;;;;;;;;;;
2022/09/29 00:27:13;;;;;;;1.2;1.1;;;;;;;;;;;;;
2022/09/29 00:29:39;;;;;;;1.1;1;;;;;;;;;;;;;
2022/09/29 00:32:05;;;;;;;3.1;1.7;;;;;;;;;;;;;
2022/09/29 00:34:30;;;;;;;1.7;1.3;;;;;;;;;;;;;
2022/09/29 00:36:55;;;;;;;1.2;1.1;;;;;;;;;;;;;
2022/09/29 00:39:21;;;;;;;1.3;1.1;;;;;;;;;;;;;
2022/09/29 00:41:46;;;;;;;1.5;1.2;;;;;;;;;;;;;
2022/09/29 00:44:11;;;;;;;1.8;0.9;;;;;;;;;;;;;
2022/09/29 00:46:36;;;;;;;1.2;0.9;;;;;;;;;;;;;
2022/09/29 00:49:01;;;;;;;0.9;0.8;;;;;;;;;;;;;
2022/09/29 00:51:26;;;;;;;2;0.8;;;;;;;;;;;;;
2022/09/29 00:53:53;;;;;;;0.6;0.6;;;;;;;;;;;;;
2022/09/29 00:56:18;;;;;;;0.6;0.4;;;;;;;;;;;;;
2022/09/29 00:58:44;;;;;;;1;0.4;;;;;;;;;;;;;
2022/09/29 01:01:09;;;;;;;0.6;0.6;;;;;;;;;;;;;
2022/09/29 01:03:36;;;;;;;0.9;0.5;;;;;;;;;;;;;
2022/09/29 01:06:00;;;;;;;0.5;0.4;;;;;;;;;;;;;
2022/09/29 01:08:25;;;;;;;0.6;0.4;;;;;;;;;;;;;
2022/09/29 01:10:50;;;;;;;0.8;0.8;;;;;;;;;;;;;
2022/09/29 01:13:15;;;;;;;1;0.6;;;;;;;;;;;;;
2022/09/29 01:15:43;;;;;;;0.4;0.4;;;;;;;;;;;;;
2022/09/29 01:18:10;;;;;;;0.3;0.3;;;;;;;;;;;;;
2022/09/29 01:20:35;;;;;;;0.5;0.5;;;;;;;;;;;;;
2022/09/29 01:23:00;;;;;;;0.7;0.4;;;;;;;;;;;;;
2022/09/29 01:25:33;;;;;;;0.2;0.2;;;;;;;;;;;;;
2022/09/29 01:27:58;;;;;;;0.5;0.5;;;;;;;;;;;;;
2022/09/29 01:30:24;;;;;;;0.6;0.5;;;;;;;;;;;;;
2022/09/29 01:32:49;;;;;;;0.5;0.5;;;;;;;;;;;;;
2022/09/29 01:35:17;;;;;;;0.5;0.5;;;;;;;;;;;;;
2022/09/29 01:37:43;;;;;;;1;0.9;;;;;;;;;;;;;
2022/09/29 01:40:08;;;;;;;1.4;1.3;;;;;;;;;;;;;
2022/09/29 01:42:33;;;;;;;2.4;1.9;;;;;;;;;;;;;
2022/09/29 01:44:58;;;;;;;2;1.8;;;;;;;;;;;;;
2022/09/29 01:47:23;;;;;;;2;1.8;;;;;;;;;;;;;
2022/09/29 01:49:48;;;;;;;2.1;1.6;;;;;;;;;;;;;
2022/09/29 01:52:13;;;;;;;2.1;1.5;;;;;;;;;;;;;
2022/09/29 01:54:38;;;;;;;1.9;1.6;;;;;;;;;;;;;
2022/09/29 01:57:21;;;;;;;1.5;1.3;;;;;;;;;;;;;
2022/09/29 01:59:34;;;;;;;0.9;0.9;;;;;;;;;;;;;
2022/09/29 02:01:59;;;;;;;0.6;0.6;;;;;;;;;;;;;
2022/09/29 02:04:25;;;;;;;0.5;0.4;;;;;;;;;;;;;
2022/09/29 02:06:50;;;;;;;0.6;0.6;;;;;;;;;;;;;
2022/09/29 02:09:15;;;;;;;0.8;0.4;;;;;;;;;;;;;
2022/09/29 02:11:40;;;;;;;0.9;0.3;;;;;;;;;;;;;
2022/09/29 02:14:28;;;;;;;0.1;0.1;;;;;;;;;;;;;
2022/09/29 02:16:55;;;;;;;0.6;0.2;;;;;;;;;;;;;
2022/09/29 02:19:33;;;;;;;0.5;0.3;;;;;;;;;;;;;
2022/09/29 02:22:00;;;;;;;0.3;0.3;;;;;;;;;;;;;
2022/09/29 02:24:25;;;;;;;0.6;0.4;;;;;;;;;;;;;
2022/09/29 02:26:52;;;;;;;0.4;0.4;;;;;;;;;;;;;
2022/09/29 02:29:16;;;;;;;0.3;0.3;;;;;;;;;;;;;
2022/09/29 02:31:43;;;;;;;0.3;0.3;;;;;;;;;;;;;
2022/09/29 02:34:08;;;;;;;0.6;0.4;;;;;;;;;;;;;
2022/09/29 02:36:33;;;;;;;0.4;0.4;;;;;;;;;;;;;
2022/09/29 02:38:59;;;;;;;0.4;0.3;;;;;;;;;;;;;
2022/09/29 02:41:23;;;;;;;0.2;0.2;;;;;;;;;;;;;
2022/09/29 02:43:49;;;;;;;0.4;0.4;;;;;;;;;;;;;
2022/09/29 02:46:15;;;;;;;0.4;0.4;;;;;;;;;;;;;
2022/09/29 02:48:40;;;;;;;0.5;0.4;;;;;;;;;;;;;
2022/09/29 02:51:06;;;;;;;0.7;0.2;;;;;;;;;;;;;
2022/09/29 02:53:31;;;;;;;0.2;0.2;;;;;;;;;;;;;
2022/09/29 02:55:58;;;;;;;1.2;1.1;;;;;;;;;;;;;
2022/09/29 02:58:23;;;;;;;1.5;1.4;;;;;;;;;;;;;
2022/09/29 03:03:14;;;;;;;1.9;1.6;;;;;;;;;;;;;
2022/09/29 03:05:40;;;;;;;2;1.7;;;;;;;;;;;;;
2022/09/29 03:08:05;;;;;;;0.6;0.5;;;;;;;;;;;;;
2022/09/29 03:10:31;;;;;;;1.8;1.5;;;;;;;;;;;;;
2022/09/29 03:12:56;;;;;;;3.8;2.3;;;;;;;;;;;;;
2022/09/29 03:15:26;;;;;;;1.4;1;;;;;;;;;;;;;
2022/09/29 03:17:51;;;;;;;0.4;0.4;;;;;;;;;;;;;
2022/09/29 03:20:18;;;;;;;1;0.9;;;;;;;;;;;;;
2022/09/29 03:25:08;;;;;;;0.8;0.8;;;;;;;;;;;;;
2022/09/29 03:27:35;;;;;;;0.5;0.5;;;;;;;;;;;;;
2022/09/29 03:29:59;;;;;;;2;0.9;;;;;;;;;;;;;
2022/09/29 03:32:24;;;;;;;0.4;0.4;;;;;;;;;;;;;
2022/09/29 03:34:50;;;;;;;3.9;2.3;;;;;;;;;;;;;
2022/09/29 03:37:15;;;;;;;0.5;0.5;;;;;;;;;;;;;
2022/09/29 03:39:54;;;;;;;2;1.5;;;;;;;;;;;;;
2022/09/29 03:42:22;;;;;;;0.5;0.5;;;;;;;;;;;;;
2022/09/29 03:44:44;;;;;;;0.7;0.7;;;;;;;;;;;;;
2022/09/29 03:47:09;;;;;;;0.6;0.6;;;;;;;;;;;;;
2022/09/29 03:49:34;;;;;;;1.7;0.5;;;;;;;;;;;;;
2022/09/29 03:52:02;;;;;;;0.5;0.5;;;;;;;;;;;;;
2022/09/29 03:54:27;;;;;;;0.4;0.4;;;;;;;;;;;;;
2022/09/29 03:56:52;;;;;;;1.1;0.8;;;;;;;;;;;;;
2022/09/29 03:59:17;;;;;;;0.7;0.7;;;;;;;;;;;;;
2022/09/29 04:02:33;;;;;;;1;0.8;;;;;;;8.46;93.64258;922.8162;;;;
2022/09/29 04:04:57;;;;;;;0.7;0.7;;;;;;;8.46;93.45801;922.7473;;;;
2022/09/29 04:07:30;;;;;;;0.6;0.6;;;;;;;8.5;92.61621;922.9373;;;;
2022/09/29 04:09:57;;;;;;;0.5;0.5;;;;;;;8.56;92.37988;922.9725;;;;
2022/09/29 04:12:22;;;;;;;1.2;0.5;;;;;;;8.61;92.33008;922.9913;;;;
2022/09/29 04:14:50;;;;;;;1.7;1.1;;;;;;;8.53;92.11035;922.9053;;;;
2022/09/29 04:17:15;;;;;;;1.3;1.3;;;;;;;8.47;92.88086;922.9994;;;;
2022/09/29 04:19:44;;;;;;;0.8;0.8;;;;;;;8.5;93.44336;922.992;;;;
2022/09/29 04:22:10;;;;;;;0.9;0.9;;;;;;;8.52;93.37012;922.9713;;;;
2022/09/29 04:24:42;;;;;;;1;0.9;;;;;;;8.56;93.40234;922.9003;;;;
2022/09/29 04:27:07;;;;;;;1.4;1.3;;;;;;;8.6;93.62598;922.8842;;;;
2022/09/29 04:29:32;;;;;;;3.1;2.6;;;;;;;8.57;93.51758;922.8773;;;;
2022/09/29 04:31:58;;;;;;;3.9;1.9;;;;;;;8.38;94.4082;922.7936;;;;
2022/09/29 04:34:23;;;;;;;2.1;1.5;;;;;;;8.42;94.48438;922.7745;;;;
2022/09/29 04:36:54;;;;;;;1.1;1.1;;;;;;;8.34;94.76172;922.8582;;;;
2022/09/29 04:39:19;;;;;;;1.6;1.5;;;;;;;8.3;94.66113;922.882;;;;
2022/09/29 04:41:47;;;;;;;1.6;1.5;;;;;;;8.28;94.9209;922.8884;;;;
2022/09/29 04:44:19;;;;;;;0.7;0.7;;;;;;;8.21;94.98242;922.8497;;;;
2022/09/29 04:53:05;;;;;;;1;0.6;;;;;;;8.22;95.57422;922.8555;;;;
2022/09/29 04:55:30;;;;;;;0.8;0.8;;;;;;;8.29;95.29492;922.7949;;;;
2022/09/29 04:58:00;;;;;;;0.6;0.6;;;;;;;8.26;94.9502;922.7672;;;;
2022/09/29 05:00:31;;;;;;;0.8;0.6;;;;;;;8.34;94.60254;922.7519;;;;
2022/09/29 05:03:04;;;;;;;0.7;0.7;;;;;;;8.2;94.77539;922.7142;;;;
2022/09/29 05:05:32;;;;;;;0.6;0.6;;;;;;;8.19;94.83008;922.7191;;;;
2022/09/29 05:08:03;;;;;;;0.7;0.6;;;;;;;8.06;95.2002;922.7176;;;;
2022/09/29 05:10:33;;;;;;;0.6;0.5;;;;;;;7.96;95.15527;922.7283;;;;
2022/09/29 05:13:02;;;;;;;1;0.6;;;;;;;7.96;95.41602;922.7251;;;;
2022/09/29 05:15:33;;;;;;;0.9;0.5;;;;;;;7.91;96.37988;922.7095;;;;
2022/09/29 05:17:59;;;;;;;0.7;0.7;;;;;;;7.97;96.17871;922.7274;;;;
2022/09/29 05:20:26;;;;;;;2.1;0.9;;;;;;;8;95.77637;922.6733;;;;
2022/09/29 05:22:51;;;;;;;0.9;0.9;;;;;;;8.1;95.35742;922.665;;;;
2022/09/29 05:25:22;;;;;;;1.1;1;;;;;;;8.06;95.22266;922.6795;;;;
2022/09/29 05:27:48;;;;;;;1.4;1.3;;;;;;;7.98;96.12402;922.7392;;;;
2022/09/29 05:30:13;;;;;;;2.1;1.8;;;;;;;7.97;96.34863;922.6893;;;;
2022/09/29 05:32:43;;;;;;;1.8;1.7;;;;;;;8.07;96.03223;922.6128;;;;
2022/09/29 05:35:12;;;;;;;1.9;1.8;;;;;;;8.19;95.54785;922.543;;;;
2022/09/29 05:37:37;;;;;;;4.9;2.6;;;;;;;8.27;95.34766;922.557;;;;
2022/09/29 05:40:07;;;;;;;4;2.2;;;;;;;8.23;95.6377;922.6017;;;;
2022/09/29 05:42:37;;;;;;;3.5;2.2;;;;;;;8.22;95.86035;922.5867;;;;
2022/09/29 05:45:05;;;;;;;1.9;1.7;;;;;;;8.31;95.32617;922.6083;;;;
2022/09/29 05:47:29;;;;;;;1.4;1;;;;;;;8.21;94.72266;922.6153;;;;
2022/09/29 05:49:55;;;;;;;1.5;1.3;;;;;;;8.1;95.85742;922.6555;;;;
2022/09/29 05:52:21;;;;;;;1.4;1.1;;;;;;;8.15;95.33301;922.6671;;;;
2022/09/29 05:54:50;;;;;;;0.8;0.8;;;;;;;8.01;95.75586;922.7042;;;;
2022/09/29 05:57:13;;;;;;;1.4;0.9;;;;;;;8.2;95.62695;922.6342;;;;
2022/09/29 05:59:41;;;;;;;1;1;;;;;;;8.32;95.63281;922.6677;;;;
2022/09/29 06:02:06;;;;;;;1.9;1.6;;;;;;;8.3;95.49023;922.6766;;;;
2022/09/29 06:04:34;;;;;;;2;1.8;;;;;;;8.22;95.19043;922.7088;;;;
2022/09/29 06:07:10;;;;;;;2;1.8;;;;;;;8.24;95.3877;922.6928;;;;
2022/09/29 06:13:13;;;;;;;4.4;2.5;;;;;;;8.27;96.7334;922.6276;;;;
2022/09/29 06:15:38;;;;;;;2.6;2.3;;;;;;;8.35;96.02539;922.6511;;;;
2022/09/29 06:21:32;;;;;;;2.8;2.6;;;;;;;8.11;96.0752;922.6189;;;;
2022/09/29 06:23:56;;;;;;;3;2.7;;;;;;;8.32;96.13281;922.628;;;;
2022/09/29 06:26:23;;;;;;;3.3;2.5;;;;;;;8.63;95.65723;922.662;;;;
2022/09/29 06:28:48;;;;;;;2.2;2;;;;;;;8.85;93.5791;922.6516;;;;
2022/09/29 06:31:15;;;;;;;2.1;1.9;;;;;;;8.78;92.69727;922.6219;;;;
2022/09/29 06:33:40;;;;;;;2.3;2;;;;;;;9.02;92.72656;922.632;;;;
2022/09/29 06:38:39;;;;;;;2.9;1.8;;;;;;;9.43;90.29883;922.5883;;;;
2022/09/29 06:41:06;;;;;;;2.4;1.6;;;;;;;9.68;88.79102;922.537;;;;
2022/09/29 06:43:35;;;;;;;2.3;1.6;;;;;;;9.89;88.35449;922.5012;;;;
2022/09/29 06:46:04;;;;;;;2;1.3;;;;;;;10.14;87.93945;922.5145;;;;
2022/09/29 06:48:29;;;;;;;1.8;1.3;;;;;;;10.2;87.10547;922.4311;;;;
2022/09/29 06:50:56;;;;;;;2.5;1.6;;;;;;;10.07;87.02344;922.4425;;;;
2022/09/29 06:53:21;;;;;;;1.4;1.3;;;;;;;9.87;85.91016;922.4617;;;;
2022/09/29 06:55:50;;;;;;;2.1;1.2;;;;;;;9.7;86.90137;922.4709;;;;
2022/09/29 06:58:15;;;;;;;1.3;1.2;;;;;;;9.72;86.84961;922.4158;;;;
2022/09/29 07:00:43;;;;;;;1.3;1.2;;;;;;;9.78;87.91113;922.4174;;;;
2022/09/29 07:03:08;;;;;;;1.6;1.2;;;;;;;9.81;88.36133;922.3783;;;;
2022/09/29 07:05:39;;;;;;;2.6;1;;;;;;;9.83;87.91797;922.2954;;;;
2022/09/29 07:08:12;;;;;;;1.4;1.1;;;;;;;9.84;87.19434;922.2745;;;;
2022/09/29 07:10:41;;;;;;;1.2;1.1;;;;;;;9.82;87.04102;922.2684;;;;
2022/09/29 07:13:08;;;;;;;1.7;1.3;;;;;;;9.65;87.69922;922.3142;;;;
2022/09/29 07:15:32;;;;;;;1.5;1.4;;;;;;;9.5;87.80664;922.2459;;;;
2022/09/29 07:18:04;;;;;;;2.7;1.8;;;;;;;9.59;88.17969;922.2074;;;;
2022/09/29 07:20:32;;;;;;;3;2.1;;;;;;;9.57;88.97168;922.1742;;;;
2022/09/29 07:22:58;;;;;;;3.3;2.6;;;;;;;9.63;87.9707;922.2134;;;;
2022/09/29 07:25:26;;;;;;;2.2;1.5;;;;;;;9.73;87.3418;922.1987;;;;
2022/09/29 07:27:51;;;;;;;2.4;1.7;;;;;;;9.83;88.08008;922.2564;;;;
2022/09/29 07:30:19;;;;;;;1.6;1.5;;;;;;;9.93;87.90625;922.2527;;;;
2022/09/29 07:32:51;;;;;;;3.7;1.6;;;;;;;10.19;89.21484;922.257;;;;
2022/09/29 07:35:21;;;;;;;1.8;1.2;;;;;;;10.39;88.2168;922.2744;;;;
2022/09/29 07:37:46;;;;;;;1.1;1;;;;;;;10.48;86.20313;922.2812;;;;
2022/09/29 07:40:13;;;;;;;0.7;0.7;;;;;;;10.53;85.7002;922.2979;;;;
2022/09/29 07:42:38;;;;;;;1.1;1.1;;;;;;;10.62;85.30664;922.2839;;;;
2022/09/29 07:45:10;;;;;;;1.2;1.1;;;;;;;10.59;84.60352;922.3494;;;;
2022/09/29 07:47:38;;;;;;;1.5;1;;;;;;;10.45;84.33496;922.4003;;;;
2022/09/29 07:50:02;;;;;;;0.9;0.9;;;;;;;10.41;85.68652;922.3727;;;;
2022/09/29 07:52:34;;;;;;;1.3;1.2;;;;;;;10.41;84.3623;922.3784;;;;
2022/09/29 07:55:01;;;;;;;1.6;1.2;;;;;;;10.56;84.86035;922.3706;;;;
2022/09/29 07:57:27;;;;;;;1.1;1;;;;;;;10.64;86.97656;922.3195;;;;
2022/09/29 07:59:57;;;;;;;1.1;1;;;;;;;10.9;85.93164;922.3869;;;;
2022/09/29 08:02:20;;;;;;;1.5;1.2;;;;;;;11.08;86.38086;922.3767;;;;
2022/09/29 08:04:45;;;;;;;1.3;1.1;;;;;;;11.15;87.01074;922.4266;;;;
2022/09/29 08:07:10;;;;;;;0.9;0.9;;;;;;;11;86.25977;922.4297;;;;
2022/09/29 08:09:36;;;;;;;3;1.1;;;;;;;11.07;86.66504;922.4039;;;;
2022/09/29 08:12:03;;;;;;;1.4;0.8;;;;;;;11.25;83.9541;922.4647;;;;
2022/09/29 08:14:28;;;;;;;0.9;0.7;;;;;;;11.24;81.90527;922.4481;;;;
2022/09/29 08:16:59;;;;;;;0.5;0.5;;;;;;;11.49;82.125;922.5018;;;;
2022/09/29 08:19:29;;;;;;;0.5;0.5;;;;;;;11.7;82.65723;922.4947;;;;
2022/09/29 08:22:01;;;;;;;0.7;0.4;;;;;;;11.91;78.14941;922.5212;;;;
2022/09/29 08:24:26;;;;;;;0.7;0.4;;;;;;;12.44;79.04785;922.5105;;;;
2022/09/29 08:26:56;;;;;;;1.4;0.5;;;;;;;12.64;75.86133;922.4987;;;;
2022/09/29 08:29:18;;;;;;;0.5;0.5;;;;;;;13.25;75.79492;922.5806;;;;
2022/09/29 08:31:44;;;;;;;0.5;0.5;;;;;;;13.64;72.36719;922.5377;;;;
2022/09/29 08:34:08;;;;;;;1;0.6;;;;;;;13.89;71.37305;922.5598;;;;
2022/09/29 08:36:38;;;;;;;0.6;0.6;;;;;;;14.13;70.24902;922.5867;;;;
2022/09/29 08:39:03;;;;;;;0.9;0.7;;;;;;;14.82;69.12598;922.5767;;;;
2022/09/29 08:41:32;;;;;;;0.7;0.7;;;;;;;15.73;67.83887;922.58;;;;
2022/09/29 08:47:43;;;;;;;1.6;0.7;;;;;;;17.76;56.79883;922.5865;;;;
2022/09/29 08:50:09;;;;;;;2;0.7;;;;;;;18.49;54.92773;922.5568;;;;
2022/09/29 08:52:34;;;;;;;0.5;0.5;;;;;;;18.9;53.76855;922.6361;;;;
2022/09/29 08:55:02;;;;;;;0.9;0.3;;;;;;;19.63;50.76855;922.634;;;;
2022/09/29 08:57:39;;;;;;;4;0.5;;;;;;;19.67;50.07422;922.5383;;;;
2022/09/29 09:00:04;;;;;;;1;0.4;;;;;;;19.04;50.28223;922.5486;;;;
2022/09/29 09:02:40;;;;;;;0.6;0.6;;;;;;;18.51;51.23438;922.674;;;;
2022/09/29 09:05:09;;;;;;;0.7;0.5;;;;;;;18.12;54.74316;922.7115;;;;
2022/09/29 09:07:40;;;;;;;5.9;0.9;;;;;;;17.17;56.53809;922.7267;;;;
2022/09/29 09:10:08;;;;;;;1.1;0.6;;;;;;;17.37;58.25684;922.7092;;;;
2022/09/29 09:12:34;;;;;;;0.5;0.5;;;;;;;17.44;57.11719;922.7051;;;;
2022/09/29 09:14:59;;;;;;;0.6;0.6;;;;;;;16.85;56.08008;922.7073;;;;
2022/09/29 09:17:25;;;;;;;1.2;0.7;;;;;;;16.46;59.53613;922.7062;;;;
2022/09/29 09:19:54;;;;;;;4.8;1;;;;;;;16.49;59.35449;922.6321;;;;
2022/09/29 09:22:16;;;;;;;2.1;0.7;;;;;;;16.11;64.15039;922.754;;;;
2022/09/29 09:24:41;;;;;;;0.6;0.6;;;;;;;16.01;62.12305;922.7083;;;;
2022/09/29 09:27:05;;;;;;;1.3;0.7;;;;;;;16.35;61.06055;922.731;;;;
2022/09/29 09:29:34;;;;;;;0.7;0.4;;;;;;;15.89;60.60352;922.5916;;;;
2022/09/29 09:32:00;;;;;;;0.8;0.6;;;;;;;15.59;64.45605;922.6497;;;;
2022/09/29 09:34:24;;;;;;;0.7;0.7;;;;;;;15.63;63.75684;922.7095;;;;
2022/09/29 09:36:52;;;;;;;0.9;0.7;;;;;;;14.72;68.52246;922.7342;;;;
2022/09/29 09:39:19;;;;;;;0.5;0.5;;;;;;;15.55;65.90332;922.6181;;;;
2022/09/29 09:41:46;;;;;;;1.7;0.9;;;;;;;15.36;66.88086;922.7179;;;;
2022/09/29 09:44:14;;;;;;;0.5;0.5;;;;;;;15.57;65.43359;922.6942;;;;
2022/09/29 09:46:40;;;;;;;1.1;0.5;;;;;;;15.38;67.54004;922.759;;;;
2022/09/29 09:49:05;;;;;;;0.7;0.7;;;;;;;15.97;64.58008;922.6786;;;;
2022/09/29 09:51:29;;;;;;;0.5;0.5;;;;;;;16.13;65.28613;922.7172;;;;
2022/09/29 09:53:54;;;;;;;0.3;0.3;;;;;;;15.67;62.78027;922.6697;;;;
2022/09/29 09:56:19;;;;;;;0.7;0.4;;;;;;;14.82;67.95117;922.6855;;;;
2022/09/29 09:58:44;;;;;;;0.4;0.4;;;;;;;14.62;66.98633;922.7123;;;;
2022/09/29 10:01:12;;;;;;;0.2;0.2;;;;;;;14.43;65.69043;922.6339;;;;
2022/09/29 10:03:37;;;;;;;0.2;0.2;;;;;;;13.8;69.83984;922.7267;;;;
2022/09/29 10:06:02;;;;;;;0.3;0.3;;;;;;;13.51;74.47266;922.7537;;;;
2022/09/29 10:08:31;;;;;;;0.4;0.4;;;;;;;14.02;71.49707;922.7108;;;;
2022/09/29 10:10:55;;;;;;;1.4;1.3;;;;;;;14.03;69.21973;922.7737;;;;
2022/09/29 10:13:20;;;;;;;3.6;0.6;;;;;;;14.39;70.2666;922.7131;;;;
2022/09/29 10:15:52;;;;;;;0.8;0.3;;;;;;;14.53;66.5791;922.8144;;;;
2022/09/29 10:18:18;;;;;;;0.3;0.3;;;;;;;13.85;69.27148;922.8122;;;;
2022/09/29 10:20:44;;;;;;;0.7;0.5;;;;;;;13.88;70.85254;922.9082;;;;
2022/09/29 10:23:10;;;;;;;1.1;0.8;;;;;;;13.63;74.33008;922.9508;;;;
2022/09/29 10:25:35;;;;;;;2.1;0.7;;;;;;;13.61;74.08691;922.9949;;;;
2022/09/29 10:28:01;;;;;;;2.3;0.8;;;;;;;13.55;74.375;923.0117;;;;
2022/09/29 10:30:31;;;;;;;0.5;0.5;;;;;;;13.75;73.23633;922.9715;;;;
2022/09/29 10:32:59;;;;;;;0.7;0.7;;;;;;;13.71;73.03418;922.9207;;;;
2022/09/29 10:35:23;;;;;;;0.7;0.6;;;;;;;13.81;72.42969;922.9578;;;;
2022/09/29 10:37:48;;;;;;;0.7;0.5;;;;;;;13.75;72.06152;922.998;;;;
2022/09/29 10:40:16;;;;;;;0.6;0.5;;;;;;;13.62;73.50195;923.0045;;;;
2022/09/29 10:42:47;;;;;;;0.7;0.6;;;;;;;13.99;73.34766;922.9225;;;;
2022/09/29 10:45:19;;;;;;;0.9;0.9;;;;;;;13.46;73.93457;922.9548;;;;
2022/09/29 10:47:44;;;;;;;1.2;0.6;;;;;;;13.51;76.25488;923.0383;;;;
2022/09/29 10:50:09;;;;;;;0.8;0.8;;;;;;;13.54;74.85645;923.0497;;;;
2022/09/29 10:52:37;;;;;;;0.6;0.6;;;;;;;13.61;74.15625;923.0037;;;;
2022/09/29 10:55:04;;;;;;;1.8;0.8;;;;;;;13.44;75.67871;923.0826;;;;
2022/09/29 10:57:32;;;;;;;0.7;0.7;;;;;;;13.46;76.53223;923.087;;;;
2022/09/29 10:59:57;;;;;;;0.6;0.6;;;;;;;13.46;76.12988;923.0662;;;;
2022/09/29 11:02:22;;;;;;;1.4;0.7;;;;;;;13.61;74.95898;923.079;;;;
2022/09/29 11:04:48;;;;;;;1.1;0.8;;;;;;;13.43;74.96289;923.0703;;;;
2022/09/29 11:07:13;;;;;;;0.5;0.5;;;;;;;13.21;75.14355;923.1039;;;;
2022/09/29 11:09:43;;;;;;;1.2;0.6;;;;;;;13.31;74.78223;923.1529;;;;
2022/09/29 11:12:09;;;;;;;1;0.8;;;;;;;13.1;76.21777;923.0799;;;;
2022/09/29 11:14:39;;;;;;;0.6;0.6;;;;;;;13.22;76.47852;923.1744;;;;
2022/09/29 11:17:04;;;;;;;0.6;0.6;;;;;;;13.25;75.96777;923.1183;;;;
2022/09/29 11:19:29;;;;;;;0.6;0.6;;;;;;;13.31;76.69043;923.1895;;;;
2022/09/29 11:21:54;;;;;;;0.5;0.5;;;;;;;12.97;79.00684;923.2355;;;;
2022/09/29 11:24:19;;;;;;;0.5;0.5;;;;;;;12.64;80.57715;923.2572;;;;
2022/09/29 11:26:45;;;;;;;0.5;0.5;;;;;;;12.72;80.99219;923.1932;;;;
2022/09/29 11:29:13;;;;;;;0.5;0.5;;;;;;;12.62;80.82422;923.3496;;;;
2022/09/29 11:31:39;;;;;;;0.8;0.7;;;;;;;12.37;81.58008;923.2684;;;;
2022/09/29 11:34:03;;;;;;;1;0.9;;;;;;;12.4;80.68164;923.3298;;;;
2022/09/29 11:36:31;;;;;;;0.8;0.8;;;;;;;12.15;83.30469;923.3741;;;;
2022/09/29 11:39:01;;;;;;;1.5;1;;;;;;;12;83.40234;923.3672;;;;
2022/09/29 11:41:30;;;;;;;1;0.9;;;;;;;12.24;83.49414;923.3397;;;;
2022/09/29 11:43:54;;;;;;;1.2;1.1;;;;;;;12.24;83.10352;923.3582;;;;
2022/09/29 11:46:21;;;;;;;1.1;1;;;;;;;12.28;82.87012;923.3549;;;;
2022/09/29 11:48:45;;;;;;;0.7;0.7;;;;;;;12.2;82.89063;923.2661;;;;
2022/09/29 11:51:10;;;;;;;1.3;0.9;;;;;;;12.13;83.91992;923.2229;;;;
2022/09/29 11:53:37;;;;;;;0.9;0.9;;;;;;;12.19;83.19824;923.2758;;;;
2022/09/29 11:56:01;;;;;;;1;0.9;;;;;;;12.08;84.04883;923.3259;;;;
2022/09/29 11:58:26;;;;;;;1.2;0.9;;;;;;;12.14;82.86719;923.3225;;;;
2022/09/29 12:00:51;;;;;;;1.1;1;;;;;;;12.18;82.72656;923.335;;;;
2022/09/29 12:03:20;;;;;;;1.7;0.9;;;;;;;12;83.65332;923.3761;;;;
2022/09/29 12:05:50;;;;;;;1;1;;;;;;;11.93;85.03613;923.3688;;;;
2022/09/29 12:08:14;;;;;;;1.4;1.3;;;;;;;11.98;84.0752;923.3421;;;;
2022/09/29 12:10:42;;;;;;;1.1;1;;;;;;;11.8;84.48535;923.3948;;;;
2022/09/29 12:13:04;;;;;;;0.8;0.8;;;;;;;11.27;86.8418;923.4372;;;;
2022/09/29 12:15:30;;;;;;;1.5;1;;;;;;;11.4;87.30176;923.3521;;;;
2022/09/29 12:17:58;;;;;;;1.6;1;;;;;;;11.32;87.35449;923.3494;;;;
2022/09/29 12:20:26;;;;;;;0.9;0.9;;;;;;;11.2;88.10645;923.3903;;;;
2022/09/29 12:22:51;;;;;;;1.2;1;;;;;;;11.47;87.6123;923.3152;;;;
2022/09/29 12:25:23;;;;;;;0.8;0.8;;;;;;;11.34;86.47754;923.3212;;;;
2022/09/29 12:27:47;;;;;;;1;0.9;;;;;;;11.4;87.26758;923.3433;;;;
2022/09/29 12:30:14;;;;;;;2;1.1;;;;;;;11.3;87.07617;923.3084;;;;
2022/09/29 12:32:39;;;;;;;1.1;1;;;;;;;11.4;86.82129;923.3918;;;;
2022/09/29 12:35:04;;;;;;;1.1;1;;;;;;;11.33;87.59473;923.4299;;;;
2022/09/29 12:37:33;;;;;;;1;1;;;;;;;11.24;88.66602;923.4313;;;;
2022/09/29 12:40:00;;;;;;;0.9;0.9;;;;;;;11.01;88.8125;923.339;;;;
2022/09/29 12:42:24;;;;;;;1.4;1;;;;;;;11.13;88.69922;923.3644;;;;
2022/09/29 12:44:53;;;;;;;1.3;1.2;;;;;;;11.28;88.0332;923.3262;;;;
2022/09/29 12:47:19;;;;;;;1.2;1.1;;;;;;;11.23;88.2627;923.3997;;;;
2022/09/29 12:49:45;;;;;;;1;1;;;;;;;11.35;87.8291;923.4358;;;;
2022/09/29 12:52:10;;;;;;;2.1;1.1;;;;;;;11.25;87.48828;923.4478;;;;
2022/09/29 12:54:37;;;;;;;1.3;1.2;;;;;;;11.17;88.13477;923.4155;;;;
2022/09/29 12:57:02;;;;;;;2;1.5;;;;;;;11.28;87.79102;923.4115;;;;
2022/09/29 12:59:28;;;;;;;1.8;1.3;;;;;;;11.02;88.03711;923.4387;;;;
2022/09/29 13:01:59;;;;;;;1.3;1.2;;;;;;;10.84;89.57715;923.5369;;;;
2022/09/29 13:04:23;;;;;;;1.4;1.3;;;;;;;10.87;89.59473;923.581;;;;
2022/09/29 13:06:48;;;;;;;2.8;1.5;;;;;;;10.81;89.9834;923.5386;;;;
2022/09/29 13:09:14;;;;;;;2.3;1.5;;;;;;;10.93;90.43066;923.5203;;;;
2022/09/29 13:11:40;;;;;;;2.2;1.5;;;;;;;10.95;89.97656;923.5375;;;;
2022/09/29 13:14:05;;;;;;;2;1.8;;;;;;;10.96;90.03809;923.4911;;;;
2022/09/29 13:16:35;;;;;;;1.2;1.1;;;;;;;10.85;90.29883;923.4944;;;;
2022/09/29 13:19:00;;;;;;;1.5;1.4;;;;;;;10.85;91.01855;923.4817;;;;
2022/09/29 13:21:25;;;;;;;1.6;1.3;;;;;;;10.84;90.13672;923.5226;;;;
2022/09/29 13:23:50;;;;;;;1.5;1.4;;;;;;;10.89;90.52539;923.5129;;;;
2022/09/29 13:26:18;;;;;;;1.6;1.3;;;;;;;10.98;89.97266;923.5353;;;;
2022/09/29 13:28:43;;;;;;;1.6;1.2;;;;;;;11.08;88.92871;923.5692;;;;
2022/09/29 13:31:13;;;;;;;1.3;1.2;;;;;;;10.83;90.4209;923.6764;;;;
2022/09/29 13:33:36;;;;;;;1.2;1.1;;;;;;;10.97;90.25488;923.6956;;;;
2022/09/29 13:36:05;;;;;;;1.2;1.1;;;;;;;11.02;89.72852;923.6378;;;;
2022/09/29 13:38:30;;;;;;;1.2;1;;;;;;;10.99;89.25488;923.7829;;;;
2022/09/29 13:40:57;;;;;;;1.9;1.3;;;;;;;11.02;88.62012;923.8649;;;;
2022/09/29 13:43:22;;;;;;;1.4;1.2;;;;;;;10.82;89.0918;923.913;;;;
2022/09/29 13:45:48;;;;;;;3;1.3;;;;;;;10.72;89.61914;923.9316;;;;
2022/09/29 13:48:13;;;;;;;1.2;1.1;;;;;;;10.74;89.19141;923.9266;;;;
2022/09/29 13:50:39;;;;;;;1.3;1.2;;;;;;;10.7;88.77246;923.9327;;;;
2022/09/29 13:53:03;;;;;;;0.9;0.9;;;;;;;10.73;89.56445;923.8845;;;;
2022/09/29 13:55:33;;;;;;;2.1;1.5;;;;;;;10.87;90.13086;923.9998;;;;
2022/09/29 13:57:59;;;;;;;2.1;1.4;;;;;;;10.82;90.1084;924.0889;;;;
2022/09/29 14:00:25;;;;;;;2;1.8;;;;;;;11.02;89.46582;924.118;;;;
2022/09/29 14:02:54;;;;;;;2.9;1.8;;;;;;;11.09;88.97754;924.0851;;;;
2022/09/29 14:05:23;;;;;;;1.5;1.4;;;;;;;11.18;88.4248;924.0804;;;;
2022/09/29 14:07:53;;;;;;;1.8;1.5;;;;;;;11.19;88.30078;923.9673;;;;
2022/09/29 14:10:18;;;;;;;2.2;1.9;;;;;;;11.3;87.87695;924.0406;;;;
2022/09/29 14:12:47;;;;;;;3.4;1.6;;;;;;;11.44;87.28809;924.033;;;;
2022/09/29 14:15:17;;;;;;;2.5;2.3;;;;;;;11.41;87.30371;924.0789;;;;
2022/09/29 14:17:40;;;;;;;2.6;2.2;;;;;;;11.2;87.74023;923.9918;;;;
2022/09/29 14:20:05;;;;;;;1.6;1.5;;;;;;;11.24;88.54102;924.0997;;;;
2022/09/29 14:22:32;;;;;;;1.6;1.3;;;;;;;11.24;87.5918;924.0638;;;;
2022/09/29 14:24:59;;;;;;;1.1;1;;;;;;;11.09;87.8916;924.1002;;;;
2022/09/29 14:27:30;;;;;;;1.6;1;;;;;;;10.98;90.31348;924.1502;;;;
2022/09/29 14:29:54;;;;;;;1.2;1.1;;;;;;;11.13;89.55664;924.1945;;;;
2022/09/29 14:32:19;;;;;;;1.4;1.2;;;;;;;11.33;89.12695;924.1884;;;;
2022/09/29 14:34:45;;;;;;;0.9;0.9;;;;;;;11.29;88.29785;924.1738;;;;
2022/09/29 14:37:10;;;;;;;1.1;1;;;;;;;11.52;87.85254;924.2772;;;;
2022/09/29 14:39:38;;;;;;;1.1;1;;;;;;;11.58;87.69336;924.2625;;;;
2022/09/29 14:42:06;;;;;;;1.4;1;;;;;;;11.62;87.36816;924.3005;;;;
2022/09/29 14:51:56;;;;;;;1.3;1.2;;;;;;;11.66;88.16797;924.2463;;;;
2022/09/29 14:52:00;;;;;;;3.6;2.8;;;;;;;11.67;88.00879;924.2509;;;;
2022/09/29 14:54:19;;;;;;;2.3;1.6;;;;;;;11.73;87.09473;924.3136;;;;
2022/09/29 14:56:44;;;;;;;1.3;1.2;;;;;;;11.59;87.93555;924.3198;;;;
2022/09/29 14:59:09;;;;;;;2.1;1.9;;;;;;;11.53;88.33691;924.2776;;;;
2022/09/29 15:01:37;;;;;;;0.9;0.9;;;;;;;11.57;88.72168;924.3304;;;;
2022/09/29 15:04:00;;;;;;;1.7;1.4;;;;;;;11.58;89.53613;924.3431;;;;
2022/09/29 15:06:26;;;;;;;1.3;1.2;;;;;;;11.49;87.75684;924.3421;;;;
2022/09/29 15:08:51;;;;;;;1.9;1.1;;;;;;;11.52;87.41699;924.2899;;;;
2022/09/29 15:11:21;;;;;;;1.1;1;;;;;;;11.54;86.36816;924.3358;;;;
2022/09/29 15:13:50;;;;;;;0.9;0.9;;;;;;;11.52;86.03418;924.3775;;;;
2022/09/29 15:16:15;;;;;;;0.9;0.6;;;;;;;11.49;86.42969;924.4299;;;;
2022/09/29 15:18:40;;;;;;;0.8;0.8;;;;;;;11.58;85.95313;924.4649;;;;
2022/09/29 15:21:05;;;;;;;1.4;0.8;;;;;;;11.52;85.16504;924.4166;;;;
2022/09/29 15:23:31;;;;;;;1.6;1;;;;;;;11.6;85.43066;924.475;;;;
2022/09/29 15:25:56;;;;;;;0.9;0.8;;;;;;;11.58;85.2666;924.4817;;;;
2022/09/29 15:28:21;;;;;;;1.1;1;;;;;;;11.59;85.3623;924.5237;;;;
2022/09/29 15:30:46;;;;;;;1.1;1;;;;;;;11.48;85.80664;924.4788;;;;
2022/09/29 15:33:12;;;;;;;1.1;1;;;;;;;11.5;85.37695;924.4433;;;;
2022/09/29 15:35:37;;;;;;;1;0.9;;;;;;;11.54;85.40723;924.5175;;;;
2022/09/29 15:38:02;;;;;;;2.3;1.9;;;;;;;11.58;85.59863;924.5814;;;;
2022/09/29 15:40:31;;;;;;;1.2;1.1;;;;;;;11.38;86.80469;924.6036;;;;
2022/09/29 15:42:56;;;;;;;2.1;1.1;;;;;;;11.29;87.57715;924.6288;;;;
2022/09/29 15:45:22;;;;;;;1.5;1.4;;;;;;;11.14;88.2002;924.6331;;;;
2022/09/29 15:47:46;;;;;;;2.4;2.1;;;;;;;10.89;88.65137;924.6786;;;;
2022/09/29 15:50:13;;;;;;;2.2;2;;;;;;;10.77;89.79297;924.7589;;;;
2022/09/29 15:52:38;;;;;;;1.8;1.7;;;;;;;10.88;89.71191;924.7584;;;;
2022/09/29 15:55:13;;;;;;;1.8;1.5;;;;;;;10.97;89.22656;924.7971;;;;
2022/09/29 15:57:45;;;;;;;3.4;1.7;;;;;;;10.97;88.90625;924.8934;;;;
2022/09/29 16:00:07;;;;;;;1.5;1.4;;;;;;;10.87;89.0918;924.8805;;;;
2022/09/29 16:02:36;;;;;;;1.5;1.4;;;;;;;10.78;89.84961;924.9578;;;;
2022/09/29 16:05:01;;;;;;;1.8;1.5;;;;;;;10.8;90.34473;924.9886;;;;
2022/09/29 16:07:29;;;;;;;2.8;1.8;;;;;;;10.72;90.80762;925.0391;;;;